Terminal Aerodrome Forecast
Issued by NWS

Home | Current Version | Previous Version | Text Only | Print | Product List | Glossary On
Versions: 1 2 3 4 5 6 7 8 9 10 11 12 13 14 15 16 17 18 19 20 21 22
215
FTUS41 KLWX 212335
TAFMTN
TAF
KMTN 212335Z 2200/2224 00000KT 3/4SM BR OVC002
     FM220600 00000KT 1/4SM -RA FG OVC003
     FM220900 VRB03KT 1/4SM FG OVC003
     FM221700 06006KT 2SM BR OVC003
     FM221800 06007KT 2SM -RA BR OVC003
      AMD NOT SKED 2202/2212=

USA.gov is the U.S. government's official web portal to all federal, state and local government web resources and services.